Amberg, Wisconsin
Current Conditions -  °F | °C
As of 6:54 AM on Thursday 18 Dec 2014 (Local Time) from KIMT Reporting Station
Clear Clear  
Wind Chill: -11°   Ceiling: Unl
Heat Index: -6°   Visibility: 10mi
Dew Point: -9°   Wind: 7mph
Humidity: 81%   Direction: 330°NNW
Pressure: 30.25"   Gusts: NA
Location:  45.5°N, 87.99°W
Report Text: KIMT 181254Z AUTO 33006KT 10SM CLR M06/M09 A3025 RMK AO2 SLP265 T10611089
Loading
Personal Weather Stations






























Interactive Weather Map New forecast layout! Learn more

10-Day Weather Forecast

Advertisements
Track Severe Weather on mobile